O57 weather

Bryant Field
Bridgeport, California, United States

Public forecast

Using degrees Fahrenheit for public forecast. Weather courtesy of forecast.io.

Closest aviation weather report (METAR) to Bryant Field

Closest report is Mammoth Yosemite Airport, 42.5 nm (78.7 km) SSE. Retrieved 2020/04/08 19:18 UTC (0 seconds ago):

KMMH 081918Z AUTO 15009G18KT 10SM SCT011 BKN047 OVC060 06/M01 A3002 RMK AO2

Closest aviation forecast (TAF) to Bryant Field

Closest forecast is Mammoth Yosemite Airport, 42.5 nm (78.7 km) SSE. Retrieved 2020/04/08 18:48 UTC (24 minutes ago):

TAF KMMH 081746Z 0818/0918 11004KT P6SM VCSH SCT025 BKN040 FM082300 08008KT 3SM -SN SCT010 OVC020 FM090300 VRB04KT 1SM -SN OVC008 FM091200 28007KT 1SM -SN SCT006 OVC010